createdAt,value
2023-05-14T00:00:59.369Z,6.82
2023-05-14T00:03:27.323Z,5.18
2023-05-14T00:05:55.283Z,8.23
2023-05-14T00:08:24.589Z,6.25
2023-05-14T00:10:52.455Z,7.57
2023-05-14T00:13:20.290Z,7.10
2023-05-14T00:15:48.186Z,5.93
2023-05-14T00:18:16.121Z,7.60
2023-05-14T00:20:44.040Z,7.07
2023-05-14T00:23:12.114Z,7.65
2023-05-14T00:25:41.304Z,7.53
2023-05-14T00:28:09.137Z,9.90
2023-05-14T00:30:36.920Z,6.88
2023-05-14T00:33:05.017Z,8.57
2023-05-14T00:35:35.295Z,8.13
2023-05-14T00:38:03.364Z,6.88
2023-05-14T00:40:31.434Z,7.97
2023-05-14T00:43:10.904Z,10.23
2023-05-14T00:45:39.186Z,8.23
2023-05-14T00:48:07.172Z,6.85
2023-05-14T00:50:35.658Z,8.13
2023-05-14T00:53:04.264Z,7.13
2023-05-14T00:55:32.885Z,5.53
2023-05-14T00:58:02.729Z,6.00
2023-05-14T01:00:30.548Z,6.88
2023-05-14T01:03:01.527Z,7.57
2023-05-14T01:05:34.961Z,7.10
2023-05-14T01:08:09.159Z,12.55
2023-05-14T01:10:43.459Z,8.73
2023-05-14T01:13:21.032Z,6.97
2023-05-14T01:15:50.332Z,7.13
2023-05-14T01:18:20.087Z,7.85
2023-05-14T01:20:51.543Z,7.97
2023-05-14T01:23:21.157Z,9.52
2023-05-14T01:25:49.052Z,8.48
2023-05-14T01:28:19.126Z,9.75
2023-05-14T01:30:52.749Z,6.18
2023-05-14T01:33:22.928Z,9.45
2023-05-14T01:35:53.677Z,6.85
2023-05-14T01:38:24.190Z,7.20
2023-05-14T01:40:53.534Z,7.28
2023-05-14T01:43:22.196Z,8.80
2023-05-14T01:45:50.068Z,12.50
2023-05-14T01:48:17.879Z,11.85
2023-05-14T01:50:45.678Z,9.02
2023-05-14T01:53:13.601Z,8.57
2023-05-14T01:55:42.848Z,9.38
2023-05-14T01:58:10.669Z,7.95
2023-05-14T02:00:38.483Z,9.85
2023-05-14T02:03:06.437Z,10.15
2023-05-14T02:05:34.421Z,11.00
2023-05-14T02:08:02.267Z,9.63
2023-05-14T02:10:30.072Z,11.00
2023-05-14T02:12:59.207Z,10.18
2023-05-14T02:15:27.026Z,7.87
2023-05-14T02:17:54.838Z,7.85
2023-05-14T02:20:22.908Z,10.13
2023-05-14T02:22:50.831Z,11.98
2023-05-14T02:25:19.115Z,10.77
2023-05-14T02:27:47.355Z,10.23
2023-05-14T02:30:16.837Z,8.77
2023-05-14T02:32:44.748Z,8.43
2023-05-14T02:35:12.586Z,11.45
2023-05-14T02:37:40.367Z,10.23
2023-05-14T02:40:09.371Z,10.05
2023-05-14T02:42:37.109Z,9.43
2023-05-14T02:45:05.568Z,8.80
2023-05-14T02:47:37.568Z,10.18
2023-05-14T02:50:06.983Z,9.52
2023-05-14T02:52:34.835Z,9.93
2023-05-14T02:55:02.950Z,12.27
2023-05-14T02:57:30.785Z,9.80
2023-05-14T02:59:58.585Z,11.68
2023-05-14T03:02:26.747Z,11.60
2023-05-14T03:04:56.254Z,13.83
2023-05-14T03:07:24.166Z,11.60
2023-05-14T03:09:51.971Z,12.03
2023-05-14T03:12:21.139Z,12.67
2023-05-14T03:14:48.929Z,12.27
2023-05-14T03:17:16.720Z,12.40
2023-05-14T03:19:44.514Z,11.33
2023-05-14T03:22:13.770Z,11.50
2023-05-14T03:24:41.628Z,11.60
2023-05-14T03:27:09.522Z,14.43
2023-05-14T03:29:37.381Z,12.40
2023-05-14T03:32:06.165Z,11.40
2023-05-14T03:34:42.986Z,17.30
2023-05-14T03:37:11.116Z,19.65
2023-05-14T03:39:40.335Z,10.38
2023-05-14T03:42:08.283Z,10.38
2023-05-14T03:44:36.172Z,12.30
2023-05-14T03:47:04.034Z,11.90
2023-05-14T03:49:31.865Z,13.00
2023-05-14T03:51:59.649Z,12.18
2023-05-14T03:54:27.440Z,11.68
2023-05-14T03:56:56.613Z,13.77
2023-05-14T03:59:24.402Z,13.77
2023-05-14T04:01:52.239Z,8.63
2023-05-14T04:04:20.222Z,10.83
2023-05-14T04:06:48.139Z,12.77
2023-05-14T04:09:16.213Z,10.93
2023-05-14T04:11:44.025Z,13.05
2023-05-14T04:14:13.146Z,10.57
2023-05-14T04:16:40.955Z,12.40
2023-05-14T04:19:08.930Z,13.90
2023-05-14T04:21:36.847Z,13.02
2023-05-14T04:24:05.151Z,12.43
2023-05-14T04:26:33.042Z,9.87
2023-05-14T04:29:03.092Z,11.80
2023-05-14T04:31:32.721Z,11.07
2023-05-14T04:34:00.537Z,10.57
2023-05-14T04:36:28.410Z,11.83
2023-05-14T04:38:56.647Z,15.13
2023-05-14T04:41:24.477Z,12.17
2023-05-14T04:43:52.289Z,13.07
2023-05-14T04:46:20.277Z,14.57
2023-05-14T04:48:50.408Z,10.90
2023-05-14T04:51:18.599Z,14.33
2023-05-14T04:53:46.574Z,11.33
2023-05-14T04:56:14.433Z,14.20
2023-05-14T04:58:42.260Z,10.90
2023-05-14T05:01:10.164Z,11.50
2023-05-14T05:03:38.111Z,15.82
2023-05-14T05:06:07.866Z,13.60
2023-05-14T05:08:35.698Z,14.80
2023-05-14T05:11:03.499Z,12.63
2023-05-14T05:13:32.234Z,15.68
2023-05-14T05:16:00.166Z,12.40
2023-05-14T05:18:28.093Z,10.68
2023-05-14T05:20:56.248Z,12.38
2023-05-14T05:23:25.469Z,9.93
2023-05-14T05:25:53.225Z,13.68
2023-05-14T05:28:21.030Z,11.32
2023-05-14T05:30:48.999Z,9.88
2023-05-14T05:33:17.150Z,9.32
2023-05-14T05:35:45.593Z,11.88
2023-05-14T05:38:15.085Z,10.65
2023-05-14T05:40:44.249Z,14.38
2023-05-14T05:43:13.915Z,10.98
2023-05-14T05:45:41.818Z,9.18
2023-05-14T05:48:09.586Z,11.57
2023-05-14T05:50:37.394Z,9.38
2023-05-14T05:53:05.295Z,7.53
2023-05-14T05:55:33.132Z,7.57
2023-05-14T05:58:02.363Z,11.82
2023-05-14T06:00:31.250Z,9.15
2023-05-14T06:02:59.151Z,9.25
2023-05-14T06:05:27.269Z,7.78
2023-05-14T06:07:59.873Z,8.35
2023-05-14T06:10:27.622Z,7.38
2023-05-14T06:12:55.386Z,8.23
2023-05-14T06:15:24.616Z,8.63
2023-05-14T06:17:52.557Z,7.43
2023-05-14T06:20:21.144Z,7.07
2023-05-14T06:22:49.144Z,6.72
2023-05-14T06:25:17.025Z,9.52
2023-05-14T06:27:44.869Z,7.65
2023-05-14T06:30:13.885Z,7.55
2023-05-14T06:32:43.165Z,11.23
2023-05-14T06:35:11.341Z,7.70
2023-05-14T06:37:39.118Z,6.10
2023-05-14T06:40:08.534Z,6.10
2023-05-14T06:42:36.382Z,7.75
2023-05-14T06:45:04.508Z,6.78
2023-05-14T06:47:32.607Z,8.10
2023-05-14T06:50:02.056Z,5.95
2023-05-14T06:52:29.929Z,8.38
2023-05-14T06:54:57.814Z,7.43
2023-05-14T06:57:25.764Z,7.35
2023-05-14T06:59:53.652Z,7.10
2023-05-14T07:02:21.525Z,6.18
2023-05-14T07:04:49.494Z,6.07
2023-05-14T07:07:21.162Z,7.68
2023-05-14T07:09:48.992Z,6.32
2023-05-14T07:12:16.785Z,5.97
2023-05-14T07:14:44.562Z,6.80
2023-05-14T07:17:12.567Z,6.28
2023-05-14T07:19:40.942Z,7.93
2023-05-14T07:22:08.844Z,7.78
2023-05-14T07:24:38.087Z,6.18
2023-05-14T07:27:06.557Z,5.00
2023-05-14T07:29:35.244Z,5.57
2023-05-14T07:32:03.181Z,3.78
2023-05-14T07:34:31.052Z,4.57
2023-05-14T07:36:59.040Z,6.45
2023-05-14T07:39:26.836Z,3.08
2023-05-14T07:41:56.023Z,5.85
2023-05-14T07:44:23.833Z,4.72
2023-05-14T07:46:51.660Z,3.47
2023-05-14T07:49:19.567Z,5.80
2023-05-14T07:51:47.335Z,5.18
2023-05-14T07:54:15.214Z,3.67
2023-05-14T07:56:43.048Z,6.47
2023-05-14T07:59:12.271Z,5.05
2023-05-14T08:01:40.096Z,4.07
2023-05-14T08:04:08.157Z,6.25
2023-05-14T08:06:36.064Z,3.85
2023-05-14T08:09:05.482Z,3.97
2023-05-14T08:11:33.263Z,4.63
2023-05-14T08:14:01.102Z,3.40
2023-05-14T08:16:30.396Z,4.63
2023-05-14T08:18:58.315Z,5.05
2023-05-14T08:21:26.120Z,5.47
2023-05-14T08:23:54.003Z,5.55
2023-05-14T08:26:21.981Z,8.30
2023-05-14T08:28:50.944Z,5.03
2023-05-14T08:31:18.828Z,3.30
2023-05-14T08:33:48.099Z,4.03
2023-05-14T08:36:15.860Z,4.20
2023-05-14T08:38:44.240Z,4.47
2023-05-14T08:41:13.836Z,5.05
2023-05-14T08:43:46.565Z,4.00
2023-05-14T08:46:18.288Z,6.07
2023-05-14T08:48:54.036Z,3.85
2023-05-14T08:51:21.924Z,2.88
2023-05-14T08:53:49.803Z,3.38
2023-05-14T08:56:19.287Z,7.72
2023-05-14T08:58:47.084Z,5.13
2023-05-14T09:01:14.950Z,5.22
2023-05-14T09:03:43.627Z,5.70
2023-05-14T09:06:15.084Z,3.72
2023-05-14T09:08:43.326Z,4.68
2023-05-14T09:11:11.177Z,3.17
2023-05-14T09:13:39.711Z,4.55
2023-05-14T09:16:08.377Z,3.20
2023-05-14T09:18:37.546Z,4.15
2023-05-14T09:21:06.039Z,2.92
2023-05-14T09:23:35.380Z,2.80
2023-05-14T09:26:06.233Z,2.88
2023-05-14T09:28:34.112Z,2.33
2023-05-14T09:31:03.523Z,3.45
2023-05-14T09:33:31.548Z,2.90
2023-05-14T09:36:00.724Z,3.25
2023-05-14T09:38:31.842Z,2.67
2023-05-14T09:41:01.972Z,8.85
2023-05-14T09:43:29.807Z,3.05
2023-05-14T09:45:57.605Z,3.10
2023-05-14T09:48:26.438Z,4.05
2023-05-14T09:50:54.360Z,2.50
2023-05-14T09:53:22.206Z,4.40
2023-05-14T09:55:50.938Z,2.83
2023-05-14T09:58:20.191Z,2.20
2023-05-14T10:00:48.379Z,3.63
2023-05-14T10:03:19.629Z,2.15
2023-05-14T10:05:51.126Z,4.43
2023-05-14T10:08:26.733Z,3.10
2023-05-14T10:10:56.090Z,2.38
2023-05-14T10:13:28.105Z,2.15
2023-05-14T10:16:03.078Z,3.63
2023-05-14T10:18:34.967Z,4.43
2023-05-14T10:21:06.424Z,7.22
2023-05-14T10:23:34.786Z,4.68
2023-05-14T10:26:03.426Z,5.85
2023-05-14T10:28:33.274Z,2.75
2023-05-14T10:31:01.724Z,3.88
2023-05-14T10:33:29.808Z,4.90
2023-05-14T10:36:03.158Z,3.75
2023-05-14T10:38:33.497Z,2.58
2023-05-14T10:41:02.970Z,2.75
2023-05-14T10:43:37.058Z,2.38
2023-05-14T10:46:05.793Z,3.15
2023-05-14T10:48:34.867Z,3.90
2023-05-14T10:51:03.084Z,3.13
2023-05-14T10:53:35.730Z,2.50
2023-05-14T10:56:08.618Z,4.03
2023-05-14T10:58:39.173Z,1.85
2023-05-14T11:01:08.542Z,3.78
2023-05-14T11:03:42.939Z,2.97
2023-05-14T11:06:13.145Z,2.92
2023-05-14T11:08:41.687Z,3.13
2023-05-14T11:11:10.858Z,1.95
2023-05-14T11:13:40.220Z,4.03
2023-05-14T11:16:21.563Z,3.53
2023-05-14T11:18:54.743Z,4.85
2023-05-14T11:21:22.799Z,6.45
2023-05-14T11:23:51.290Z,3.80
2023-05-14T11:26:21.399Z,2.53
2023-05-14T11:28:51.064Z,2.42
2023-05-14T11:31:19.135Z,1.85
2023-05-14T11:33:47.315Z,1.95
2023-05-14T11:36:15.176Z,3.28
2023-05-14T11:38:50.596Z,3.08
2023-05-14T11:41:21.032Z,3.80
2023-05-14T11:43:50.420Z,2.42
2023-05-14T11:46:19.360Z,3.00
2023-05-14T11:48:47.321Z,3.22
2023-05-14T11:51:18.219Z,5.32
2023-05-14T11:53:46.723Z,3.45
2023-05-14T11:56:14.618Z,4.28
2023-05-14T11:58:42.444Z,2.72
2023-05-14T12:01:14.687Z,1.60
2023-05-14T12:03:42.873Z,2.15
2023-05-14T12:06:10.778Z,2.50
2023-05-14T12:08:38.848Z,3.38
2023-05-14T12:11:06.919Z,3.47
2023-05-14T12:13:34.833Z,2.10
2023-05-14T12:16:03.505Z,3.13
2023-05-14T12:18:33.735Z,2.38
2023-05-14T12:21:03.868Z,4.10
2023-05-14T12:23:33.172Z,2.47
2023-05-14T12:26:06.190Z,6.30
2023-05-14T12:28:37.703Z,3.58
2023-05-14T12:31:06.716Z,3.72
2023-05-14T12:33:36.174Z,3.97
2023-05-14T12:36:20.592Z,2.15
2023-05-14T12:38:50.252Z,3.10
2023-05-14T12:41:18.265Z,1.83
2023-05-14T12:43:48.615Z,4.90
2023-05-14T12:46:16.598Z,4.05
2023-05-14T12:48:46.469Z,3.30
2023-05-14T12:51:14.561Z,2.30
2023-05-14T12:53:42.437Z,3.72
2023-05-14T12:56:10.883Z,1.88
2023-05-14T12:58:38.636Z,1.90
2023-05-14T13:01:06.688Z,2.00
2023-05-14T13:03:34.695Z,2.15
2023-05-14T13:06:03.942Z,2.78
2023-05-14T13:08:31.813Z,4.22
2023-05-14T13:11:00.887Z,2.80
2023-05-14T13:13:28.918Z,3.40
2023-05-14T13:15:56.803Z,3.92
2023-05-14T13:18:26.615Z,2.38
2023-05-14T13:20:55.484Z,2.78
2023-05-14T13:23:25.062Z,3.25
2023-05-14T13:25:52.900Z,4.88
2023-05-14T13:28:20.715Z,2.65
2023-05-14T13:31:05.122Z,1.98
2023-05-14T13:33:33.715Z,3.05
2023-05-14T13:36:01.674Z,3.47
2023-05-14T13:38:30.919Z,5.63
2023-05-14T13:41:02.385Z,3.75
2023-05-14T13:43:31.227Z,2.63
2023-05-14T13:45:59.413Z,2.65
2023-05-14T13:48:27.771Z,1.70
2023-05-14T13:50:55.888Z,2.30
2023-05-14T13:53:24.642Z,3.95
2023-05-14T13:55:56.634Z,2.58
2023-05-14T13:58:25.272Z,2.00
2023-05-14T14:00:53.529Z,3.72
2023-05-14T14:03:21.637Z,6.50
2023-05-14T14:05:50.194Z,3.70
2023-05-14T14:08:23.943Z,4.20
2023-05-14T14:10:55.325Z,4.00
2023-05-14T14:13:23.746Z,4.28
2023-05-14T14:15:51.727Z,2.53
2023-05-14T14:18:19.779Z,2.70
2023-05-14T14:20:47.605Z,2.15
2023-05-14T14:23:15.507Z,3.67
2023-05-14T14:25:43.646Z,2.55
2023-05-14T14:28:12.806Z,2.42
2023-05-14T14:30:41.109Z,2.45
2023-05-14T14:33:09.003Z,2.75
2023-05-14T14:35:37.448Z,2.00
2023-05-14T14:38:05.357Z,2.25
2023-05-14T14:40:34.187Z,5.60
2023-05-14T14:43:02.072Z,3.10
2023-05-14T14:45:31.251Z,4.82
2023-05-14T14:48:31.481Z,4.95
2023-05-14T14:50:59.452Z,3.80
2023-05-14T14:53:27.254Z,3.45
2023-05-14T14:55:55.126Z,3.50
2023-05-14T14:58:23.157Z,2.95
2023-05-14T15:00:54.015Z,6.95
2023-05-14T15:03:22.386Z,2.42
2023-05-14T15:05:51.245Z,3.83
2023-05-14T15:08:19.046Z,2.53
2023-05-14T15:10:46.897Z,2.22
2023-05-14T15:13:14.691Z,3.13
2023-05-14T15:15:42.584Z,2.08
2023-05-14T15:18:11.988Z,5.15
2023-05-14T15:20:40.101Z,3.13
2023-05-14T15:23:08.208Z,3.15
2023-05-14T15:25:37.770Z,2.88
2023-05-14T15:28:07.034Z,3.92
2023-05-14T15:30:34.903Z,3.30
2023-05-14T15:33:02.878Z,3.63
2023-05-14T15:35:32.146Z,2.78
2023-05-14T15:37:59.942Z,1.92
2023-05-14T15:40:28.571Z,6.25
2023-05-14T15:42:56.373Z,2.38
2023-05-14T15:45:24.421Z,3.30
2023-05-14T15:47:52.232Z,3.17
2023-05-14T15:50:21.442Z,3.20
2023-05-14T15:52:50.963Z,4.00
2023-05-14T15:55:19.066Z,3.42
2023-05-14T15:57:46.890Z,3.67
2023-05-14T16:00:15.457Z,5.43
2023-05-14T16:02:43.387Z,4.35
2023-05-14T16:05:11.288Z,5.63
2023-05-14T16:07:39.526Z,3.05
2023-05-14T16:10:09.802Z,4.03
2023-05-14T16:12:37.677Z,1.77
2023-05-14T16:15:06.166Z,4.88
2023-05-14T16:17:34.076Z,3.22
2023-05-14T16:20:02.047Z,4.78
2023-05-14T16:22:32.020Z,2.47
2023-05-14T16:25:02.589Z,2.30
2023-05-14T16:27:32.499Z,2.50
2023-05-14T16:30:00.375Z,2.22
2023-05-14T16:32:28.199Z,3.95
2023-05-14T16:34:56.634Z,4.68
2023-05-14T16:37:24.609Z,3.30
2023-05-14T16:39:52.454Z,3.40
2023-05-14T16:42:20.354Z,5.18
2023-05-14T16:44:49.577Z,4.65
2023-05-14T16:47:17.368Z,3.20
2023-05-14T16:49:45.297Z,2.58
2023-05-14T16:52:13.154Z,2.45
2023-05-14T16:54:40.980Z,5.00
2023-05-14T16:57:08.917Z,2.33
2023-05-14T16:59:36.777Z,6.68
2023-05-14T17:02:06.243Z,4.15
2023-05-14T17:07:06.638Z,2.53
2023-05-14T17:09:34.500Z,2.80
2023-05-14T17:12:02.415Z,4.28
2023-05-14T17:14:30.317Z,2.40
2023-05-14T17:16:58.113Z,2.83
2023-05-14T17:19:27.318Z,2.55
2023-05-14T17:21:55.073Z,2.58
2023-05-14T17:24:22.884Z,2.22
2023-05-14T17:26:50.757Z,5.22
2023-05-14T17:29:18.626Z,3.42
2023-05-14T17:31:46.770Z,3.58
2023-05-14T17:34:14.708Z,4.03
2023-05-14T17:36:43.906Z,3.78
2023-05-14T17:39:11.908Z,3.55
2023-05-14T17:41:42.092Z,2.30
2023-05-14T17:44:12.087Z,2.55
2023-05-14T17:46:41.664Z,3.78
2023-05-14T17:49:09.724Z,3.00
2023-05-14T17:51:37.420Z,7.78
2023-05-14T17:54:06.753Z,2.88
2023-05-14T17:56:35.033Z,2.10
2023-05-14T17:59:02.822Z,2.35
2023-05-14T18:01:30.812Z,3.85
2023-05-14T18:03:58.748Z,4.85
2023-05-14T18:06:26.761Z,4.50
2023-05-14T18:08:54.594Z,4.95
2023-05-14T18:11:23.823Z,3.55
2023-05-14T18:13:51.563Z,5.88
2023-05-14T18:16:19.398Z,3.25
2023-05-14T18:18:47.724Z,3.88
2023-05-14T18:21:16.048Z,2.47
2023-05-14T18:23:43.887Z,2.22
2023-05-14T18:26:11.780Z,2.63
2023-05-14T18:28:41.043Z,2.72
2023-05-14T18:31:08.941Z,4.45
2023-05-14T18:33:37.007Z,2.65
2023-05-14T18:36:05.181Z,4.15
2023-05-14T18:38:33.024Z,4.63
2023-05-14T18:41:00.801Z,5.53
2023-05-14T18:43:28.603Z,3.75
2023-05-14T18:45:57.868Z,2.72
2023-05-14T18:48:26.472Z,3.20
2023-05-14T18:50:54.229Z,3.85
2023-05-14T18:53:22.042Z,3.50
2023-05-14T18:55:49.796Z,4.88
2023-05-14T18:58:17.719Z,3.95
2023-05-14T19:00:45.522Z,4.72
2023-05-14T19:03:15.198Z,4.68
2023-05-14T19:05:43.169Z,4.32
2023-05-14T19:08:10.996Z,4.95
2023-05-14T19:10:38.830Z,4.68
2023-05-14T19:13:06.724Z,5.05
2023-05-14T19:15:34.609Z,5.10
2023-05-14T19:18:02.791Z,4.18
2023-05-14T19:20:32.001Z,9.48
2023-05-14T19:22:59.948Z,6.57
2023-05-14T19:25:28.014Z,9.38
2023-05-14T19:28:01.559Z,8.00
2023-05-14T19:30:29.401Z,7.40
2023-05-14T19:32:57.315Z,7.22
2023-05-14T19:35:25.446Z,5.47
2023-05-14T19:37:54.812Z,7.28
2023-05-14T19:40:22.610Z,7.88
2023-05-14T19:42:50.420Z,4.53
2023-05-14T19:45:18.223Z,5.82
2023-05-14T19:47:46.035Z,9.30
2023-05-14T19:50:13.937Z,6.10
2023-05-14T19:52:41.681Z,6.35
2023-05-14T19:55:11.029Z,4.95
2023-05-14T19:57:39.181Z,6.55
2023-05-14T20:00:09.386Z,4.07
2023-05-14T20:02:37.187Z,6.07
2023-05-14T20:05:06.811Z,5.35
2023-05-14T20:07:34.602Z,7.00
2023-05-14T20:10:02.711Z,5.55
2023-05-14T20:12:31.959Z,6.43
2023-05-14T20:14:59.834Z,6.00
2023-05-14T20:17:27.852Z,7.55
2023-05-14T20:19:56.531Z,11.98
2023-05-14T20:22:24.284Z,3.97
2023-05-14T20:24:52.723Z,5.43
2023-05-14T20:27:20.768Z,4.47
2023-05-14T20:29:51.370Z,6.43
2023-05-14T20:32:24.774Z,9.35
2023-05-14T20:34:52.848Z,6.95
2023-05-14T20:37:21.692Z,7.03
2023-05-14T20:39:49.500Z,5.50
2023-05-14T20:42:17.383Z,7.80
2023-05-14T20:44:45.250Z,4.93
2023-05-14T20:47:17.769Z,4.90
2023-05-14T20:49:45.646Z,5.38
2023-05-14T20:52:13.584Z,5.80
2023-05-14T20:54:41.400Z,3.95
2023-05-14T20:57:09.533Z,4.50
2023-05-14T20:59:37.357Z,6.25
2023-05-14T21:02:06.126Z,5.20
2023-05-14T21:04:35.874Z,5.30
2023-05-14T21:07:03.919Z,8.55
2023-05-14T21:09:31.750Z,5.82
2023-05-14T21:11:59.582Z,6.28
2023-05-14T21:14:27.342Z,6.15
2023-05-14T21:16:55.273Z,5.63
2023-05-14T21:19:23.636Z,11.25
2023-05-14T21:21:52.911Z,8.40
2023-05-14T21:24:20.705Z,6.15
2023-05-14T21:26:48.620Z,5.45
2023-05-14T21:29:16.580Z,6.05
2023-05-14T21:31:44.470Z,4.40
2023-05-14T21:34:12.296Z,7.50
2023-05-14T21:36:40.086Z,4.97
2023-05-14T21:39:09.429Z,6.13
2023-05-14T21:41:37.184Z,4.45
2023-05-14T21:44:04.996Z,4.15
2023-05-14T21:46:32.853Z,6.32
2023-05-14T21:49:00.665Z,4.13
2023-05-14T21:51:28.542Z,6.03
2023-05-14T21:53:56.347Z,5.25
2023-05-14T21:56:26.417Z,3.83
2023-05-14T21:58:56.028Z,5.25
2023-05-14T22:01:24.033Z,3.55
2023-05-14T22:03:51.953Z,7.53
2023-05-14T22:06:19.822Z,3.70
2023-05-14T22:08:47.635Z,3.80
2023-05-14T22:11:15.452Z,3.85
2023-05-14T22:13:44.677Z,4.50
2023-05-14T22:16:14.233Z,6.28
2023-05-14T22:18:42.714Z,4.80
2023-05-14T22:21:10.611Z,5.72
2023-05-14T22:23:38.435Z,3.22
2023-05-14T22:26:06.284Z,4.82
2023-05-14T22:28:34.047Z,7.25
2023-05-14T22:31:04.282Z,4.47
2023-05-14T22:33:33.213Z,5.88
2023-05-14T22:36:01.037Z,3.60
2023-05-14T22:38:28.895Z,3.60
2023-05-14T22:40:56.682Z,4.45
2023-05-14T22:43:24.588Z,3.13
2023-05-14T22:45:52.677Z,6.57
2023-05-14T22:48:21.846Z,3.80
2023-05-14T22:50:49.677Z,3.67
2023-05-14T22:53:17.503Z,4.38
2023-05-14T22:55:45.334Z,6.10
2023-05-14T22:58:13.205Z,3.78
2023-05-14T23:00:41.084Z,2.85
2023-05-14T23:03:08.969Z,3.15
2023-05-14T23:05:38.182Z,4.18
2023-05-14T23:08:06.800Z,3.92
2023-05-14T23:10:35.315Z,3.95
2023-05-14T23:13:03.163Z,4.60
2023-05-14T23:15:30.934Z,3.95
2023-05-14T23:17:58.852Z,5.25
2023-05-14T23:20:26.768Z,4.93
2023-05-14T23:22:55.871Z,5.55
2023-05-14T23:25:23.812Z,4.32
2023-05-14T23:27:51.767Z,5.43
2023-05-14T23:30:19.758Z,4.18
2023-05-14T23:32:47.544Z,6.20
2023-05-14T23:35:15.508Z,4.40
2023-05-14T23:37:47.330Z,3.63
2023-05-14T23:40:16.798Z,4.15
2023-05-14T23:42:44.973Z,3.15
2023-05-14T23:45:14.007Z,5.10
2023-05-14T23:47:42.179Z,5.20
2023-05-14T23:50:10.248Z,4.88
2023-05-14T23:52:38.059Z,4.18
2023-05-14T23:55:06.588Z,4.70
2023-05-14T23:57:36.063Z,5.82
